Time;durP1;ratioP1;P1;durP2;ratioP2;P2;SDS_P1;SDS_P2;PMS_P1;PMS_P2;Temp;Humidity;BMP_temperature;BMP_pressure;BME280_temperature;BME280_humidity;BME280_pressure;Samples;Min_cycle;Max_cycle;Signal;HPM_P1;HPM_P2
2022/09/29 00:03:29;;;;;;;;;;;;;;;11.56;100.00;99000.66;10101216;29;20269;-73
2022/09/29 00:08:32;;;;;;;;;;;;;;;11.66;100.00;99002.97;10100852;29;20392;-73
2022/09/29 00:13:36;;;;;;;;;;;;;;;11.70;100.00;98994.19;10101169;29;19935;-71
2022/09/29 00:18:40;;;;;;;;;;;;;;;11.62;100.00;98990.06;10100539;29;20077;-72
2022/09/29 00:23:43;;;;;;;;;;;;;;;11.63;100.00;98990.94;10100192;29;20326;-71
2022/09/29 00:28:51;;;;;;;;;;;;;;;11.65;100.00;98988.31;10100372;29;20362;-71
2022/09/29 00:33:54;;;;;;;;;;;;;;;11.65;100.00;98983.09;10100188;29;20358;-70
2022/09/29 00:38:58;;;;;;;;;;;;;;;11.73;100.00;98984.53;10100390;29;20038;-74
2022/09/29 00:44:03;;;;;;;;;;;;;;;11.66;100.00;98993.44;10100033;29;19935;-70
2022/09/29 00:49:10;;;;;;;;;;;;;;;11.67;100.00;98986.47;10101079;29;20332;-75
2022/09/29 00:54:14;;;;;;;;;;;;;;;11.64;100.00;98997.84;10099729;29;19963;-73
2022/09/29 00:59:22;;;;;;;;;;;;;;;11.69;100.00;98993.31;10100147;29;20014;-71
2022/09/29 01:04:26;;;;;;;;;;;;;;;11.68;100.00;99001.19;10099966;29;20015;-74
2022/09/29 01:09:30;;;;;;;;;;;;;;;11.65;100.00;98998.69;10099447;29;19950;-68
2022/09/29 01:14:37;;;;;;;;;;;;;;;11.63;100.00;99006.53;10099550;29;20271;-73
2022/09/29 01:19:46;;;;;;;;;;;;;;;11.55;100.00;99005.91;10099373;29;19963;-71
2022/09/29 01:24:56;;;;;;;;;;;;;;;11.46;100.00;99008.84;10099340;29;19928;-69
2022/09/29 01:30:13;;;;;;;;;;;;;;;11.60;100.00;99017.00;10099505;29;20306;-70
2022/09/29 01:35:22;;;;;;;;;;;;;;;11.42;100.00;99031.47;10105097;29;19928;-70
2022/09/29 01:40:29;;;;;;;;;;;;;;;11.48;100.00;99026.09;10106430;29;20405;-70
2022/09/29 01:45:33;;;;;;;;;;;;;;;11.45;100.00;99017.56;10106002;29;20281;-71
2022/09/29 01:50:39;;;;;;;;;;;;;;;11.47;100.00;99040.00;10105963;29;19938;-71
2022/09/29 01:55:44;;;;;;;;;;;;;;;11.44;100.00;99029.69;10105540;29;19938;-71
2022/09/29 02:00:50;;;;;;;;;;;;;;;11.39;100.00;99031.59;10105382;29;19940;-72
2022/09/29 02:05:56;;;;;;;;;;;;;;;11.41;100.00;99035.00;10105920;29;19935;-74
2022/09/29 02:11:01;;;;;;;;;;;;;;;11.41;100.00;99041.94;10104868;29;19932;-72
2022/09/29 02:16:05;;;;;;;;;;;;;;;11.42;100.00;99041.88;10105245;29;19978;-73
2022/09/29 02:21:09;;;;;;;;;;;;;;;11.32;100.00;99050.88;10104648;29;19928;-75
2022/09/29 02:26:12;;;;;;;;;;;;;;;11.21;100.00;99050.41;10129668;29;19928;-73
2022/09/29 02:31:16;;;;;;;;;;;;;;;11.28;100.00;99057.09;10143186;29;20027;-71
2022/09/29 02:36:27;;;;;;;;;;;;;;;11.25;100.00;99058.97;10143036;29;19995;-71
2022/09/29 02:41:34;;;;;;;;;;;;;;;11.25;100.00;99052.00;10143207;29;19941;-77
2022/09/29 02:46:43;;;;;;;;;;;;;;;11.18;100.00;99058.28;10142058;29;20258;-71
2022/09/29 02:51:49;;;;;;;;;;;;;;;11.15;100.00;99062.75;10142474;29;19931;-72
2022/09/29 02:56:57;;;;;;;;;;;;;;;11.04;100.00;99068.31;10142059;29;19950;-75
2022/09/29 03:02:01;;;;;;;;;;;;;;;10.85;100.00;99089.69;10141906;29;20417;-74
2022/09/29 03:07:06;;;;;;;;;;;;;;;10.88;100.00;99063.66;10142002;29;20018;-76
2022/09/29 03:12:09;;;;;;;;;;;;;;;10.86;100.00;99075.81;10141444;29;20006;-69
2022/09/29 03:17:12;;;;;;;;;;;;;;;10.97;100.00;99086.72;10131475;29;20019;-73
2022/09/29 03:22:17;;;;;;;;;;;;;;;10.97;100.00;99090.19;10102611;29;19938;-72
2022/09/29 03:27:20;;;;;;;;;;;;;;;10.97;100.00;99108.34;10102416;29;19963;-74
2022/09/29 03:32:23;;;;;;;;;;;;;;;11.17;100.00;99118.06;10102157;29;19967;-75
2022/09/29 03:37:27;;;;;;;;;;;;;;;11.13;100.00;99122.50;10101952;29;20266;-72
2022/09/29 03:42:31;;;;;;;;;;;;;;;11.20;100.00;99108.44;10102101;29;19931;-72
2022/09/29 03:47:34;;;;;;;;;;;;;;;11.17;100.00;99105.94;10101575;29;20011;-72
2022/09/29 03:52:38;;;;;;;;;;;;;;;11.26;100.00;99129.03;10118909;29;20349;-72
2022/09/29 03:57:41;;;;;;;;;;;;;;;11.07;100.00;99127.91;10138906;29;19948;-73
2022/09/29 04:02:44;;;;;;;;;;;;;;;11.08;100.00;99129.59;10139643;29;19935;-71
2022/09/29 04:07:48;;;;;;;;;;;;;;;10.93;100.00;99122.31;10139722;29;19934;-76
2022/09/29 04:12:51;;;;;;;;;;;;;;;10.83;100.00;99115.72;9439079;29;10000800;-72
2022/09/29 04:17:55;;;;;;;;;;;;;;;10.93;100.00;99124.03;10059498;29;19928;-74
2022/09/29 04:22:59;;;;;;;;;;;;;;;10.94;100.00;99123.16;10059020;29;19983;-74
2022/09/29 04:28:03;;;;;;;;;;;;;;;10.94;100.00;99123.16;10059090;29;19928;-71
2022/09/29 04:33:06;;;;;;;;;;;;;;;10.66;100.00;99136.13;10058666;29;19928;-73
2022/09/29 04:38:10;;;;;;;;;;;;;;;10.87;100.00;99134.63;10059044;29;19928;-71
2022/09/29 04:43:13;;;;;;;;;;;;;;;10.80;100.00;99133.97;10058630;29;19934;-73
2022/09/29 04:48:16;;;;;;;;;;;;;;;10.90;100.00;99138.00;10058322;29;20332;-74
2022/09/29 04:53:20;;;;;;;;;;;;;;;10.72;100.00;99148.06;10058491;29;20027;-64
2022/09/29 04:58:23;;;;;;;;;;;;;;;10.61;100.00;99145.81;10058057;29;19934;-73
2022/09/29 05:03:26;;;;;;;;;;;;;;;10.64;100.00;99152.63;10061872;29;19928;-73
2022/09/29 05:08:31;;;;;;;;;;;;;;;10.69;100.00;99150.75;10100609;29;19931;-73
2022/09/29 05:13:34;;;;;;;;;;;;;;;10.77;100.00;99149.63;10103831;29;20011;-67
2022/09/29 05:18:37;;;;;;;;;;;;;;;10.67;100.00;99155.13;10104021;29;20343;-67
2022/09/29 05:23:42;;;;;;;;;;;;;;;10.56;100.00;99168.41;10103494;29;19928;-72
2022/09/29 05:28:46;;;;;;;;;;;;;;;10.71;100.00;99172.31;10087482;29;19928;-72
2022/09/29 05:33:49;;;;;;;;;;;;;;;10.87;100.00;99170.97;10103397;29;20353;-72
2022/09/29 05:38:55;;;;;;;;;;;;;;;10.89;100.00;99182.16;10103219;29;20027;-75
2022/09/29 05:44:00;;;;;;;;;;;;;;;10.90;100.00;99182.13;10102722;29;19979;-73
2022/09/29 05:49:03;;;;;;;;;;;;;;;10.97;100.00;99199.22;10102252;29;20023;-72
2022/09/29 05:54:07;;;;;;;;;;;;;;;11.04;100.00;99200.72;10102572;29;19980;-73
2022/09/29 05:59:10;;;;;;;;;;;;;;;11.08;100.00;99199.72;10102481;29;19942;-73
2022/09/29 06:04:14;;;;;;;;;;;;;;;11.14;100.00;99196.94;10101936;29;20298;-72
2022/09/29 06:09:18;;;;;;;;;;;;;;;11.07;100.00;99207.56;10102486;29;19928;-76
2022/09/29 06:14:21;;;;;;;;;;;;;;;10.98;100.00;99206.09;10101561;29;20306;-73
2022/09/29 06:19:25;;;;;;;;;;;;;;;11.01;100.00;99211.19;10100718;29;19928;-73
2022/09/29 06:24:31;;;;;;;;;;;;;;;11.06;100.00;99222.28;10100614;29;20188;-74
2022/09/29 06:29:34;;;;;;;;;;;;;;;11.14;100.00;99232.44;10101383;29;19928;-75
2022/09/29 06:37:33;;;;;;;;;;;;;;;11.23;100.00;99224.38;10101283;29;19928;-74
2022/09/29 06:40:03;;;;;;;;;;;;;;;11.15;100.00;99234.97;10100936;29;19927;-71
2022/09/29 06:45:12;;;;;;;;;;;;;;;11.15;100.00;99247.97;10100723;29;19963;-73
2022/09/29 06:50:15;;;;;;;;;;;;;;;11.31;100.00;99241.41;10099709;29;19963;-74
2022/09/29 06:55:26;;;;;;;;;;;;;;;11.36;100.00;99249.06;10100133;29;19931;-70
2022/09/29 07:00:29;;;;;;;;;;;;;;;11.49;100.00;99253.00;10099935;29;20018;-75
2022/09/29 07:05:32;;;;;;;;;;;;;;;11.54;100.00;99251.09;10100545;29;20031;-72
2022/09/29 07:10:37;;;;;;;;;;;;;;;11.53;100.00;99258.03;10098543;29;19934;-72
2022/09/29 07:15:40;;;;;;;;;;;;;;;11.69;100.00;99270.56;10098394;29;19960;-62
2022/09/29 07:20:43;;;;;;;;;;;;;;;11.77;100.00;99281.59;10099585;29;20298;-72
2022/09/29 07:25:48;;;;;;;;;;;;;;;11.78;100.00;99276.34;10099406;29;20010;-69
2022/09/29 07:31:00;;;;;;;;;;;;;;;11.74;100.00;99279.91;10099022;29;19931;-66
2022/09/29 07:36:17;;;;;;;;;;;;;;;11.65;100.00;99285.41;10099343;29;20063;-69
2022/09/29 07:41:23;;;;;;;;;;;;;;;11.78;100.00;99293.66;10099413;29;19928;-67
2022/09/29 07:46:26;;;;;;;;;;;;;;;11.75;99.74;99292.03;10098499;29;19928;-69
2022/09/29 07:51:29;;;;;;;;;;;;;;;11.77;99.88;99312.78;10098322;29;20083;-68
2022/09/29 07:56:34;;;;;;;;;;;;;;;11.87;98.91;99304.63;10113763;29;19931;-70
2022/09/29 08:01:37;;;;;;;;;;;;;;;11.86;97.27;99312.47;10096615;29;20011;-73
2022/09/29 08:06:42;;;;;;;;;;;;;;;12.02;96.89;99316.28;10097195;29;20298;-69
2022/09/29 08:11:46;;;;;;;;;;;;;;;12.31;96.20;99318.75;10097449;29;20277;-75
2022/09/29 08:16:52;;;;;;;;;;;;;;;12.27;94.37;99328.41;10097689;29;19928;-73
2022/09/29 08:21:56;;;;;;;;;;;;;;;12.46;92.11;99321.69;10097619;29;19938;-71
2022/09/29 08:27:01;;;;;;;;;;;;;;;12.40;92.16;99326.25;10097377;29;19928;-71
2022/09/29 08:32:17;;;;;;;;;;;;;;;12.22;93.09;99326.88;10096698;29;19936;-71
2022/09/29 08:37:20;;;;;;;;;;;;;;;12.41;92.96;99338.34;10097375;29;19932;-64
2022/09/29 08:42:29;;;;;;;;;;;;;;;12.40;92.29;99340.13;10096242;29;20024;-73
2022/09/29 08:47:47;;;;;;;;;;;;;;;12.44;91.82;99349.50;10097046;29;20014;-72
2022/09/29 08:52:53;;;;;;;;;;;;;;;12.56;91.04;99354.31;10096895;29;19947;-73
2022/09/29 08:57:59;;;;;;;;;;;;;;;12.59;90.94;99354.22;10096645;29;19932;-72
2022/09/29 09:03:13;;;;;;;;;;;;;;;12.93;89.54;99356.47;10097145;29;19938;-73
2022/09/29 09:08:22;;;;;;;;;;;;;;;12.70;89.27;99372.09;10096786;29;20310;-68
2022/09/29 09:13:35;;;;;;;;;;;;;;;12.66;89.78;99371.34;10096337;29;19928;-65
2022/09/29 09:18:46;;;;;;;;;;;;;;;12.49;91.15;99372.81;10096426;29;19934;-64
2022/09/29 09:23:53;;;;;;;;;;;;;;;12.63;90.46;99366.22;10096272;29;20019;-73
2022/09/29 09:29:05;;;;;;;;;;;;;;;12.71;89.80;99366.81;10096194;29;19981;-71
2022/09/29 09:34:12;;;;;;;;;;;;;;;12.94;89.71;99373.81;10096479;29;19932;-69
2022/09/29 09:39:20;;;;;;;;;;;;;;;13.12;87.93;99382.75;10096232;29;19932;-71
2022/09/29 09:44:27;;;;;;;;;;;;;;;13.04;87.33;99380.44;10098102;29;19967;-73
2022/09/29 09:49:32;;;;;;;;;;;;;;;13.15;88.30;99385.28;10098960;29;20230;-73
2022/09/29 09:54:36;;;;;;;;;;;;;;;13.03;87.44;99391.75;10101177;29;20039;-71
2022/09/29 09:59:47;;;;;;;;;;;;;;;13.08;88.10;99400.25;10105682;29;19927;-72
2022/09/29 10:04:51;;;;;;;;;;;;;;;13.07;87.21;99406.38;10105435;29;19935;-70
2022/09/29 10:10:02;;;;;;;;;;;;;;;13.05;87.61;99418.59;10105490;29;19932;-74
2022/09/29 10:15:15;;;;;;;;;;;;;;;13.00;87.52;99422.22;10105319;29;20325;-70
2022/09/29 10:20:29;;;;;;;;;;;;;;;12.99;86.38;99415.34;10105054;29;19927;-74
2022/09/29 10:25:32;;;;;;;;;;;;;;;13.06;86.28;99424.66;10104721;29;20015;-72
2022/09/29 10:30:37;;;;;;;;;;;;;;;12.98;86.35;99434.47;10104508;29;19946;-70
2022/09/29 10:35:41;;;;;;;;;;;;;;;12.88;85.61;99443.47;10104352;29;19928;-73
2022/09/29 10:40:57;;;;;;;;;;;;;;;12.87;86.42;99447.88;10104359;29;19928;-73
2022/09/29 10:46:01;;;;;;;;;;;;;;;12.97;85.17;99445.78;10104036;29;20369;-74
2022/09/29 10:51:05;;;;;;;;;;;;;;;12.93;85.22;99450.25;10103711;29;19975;-73
2022/09/29 10:56:16;;;;;;;;;;;;;;;13.04;84.64;99442.09;10103633;29;20261;-75
2022/09/29 11:01:20;;;;;;;;;;;;;;;13.03;84.50;99454.25;10103563;29;19996;-73
2022/09/29 11:06:26;;;;;;;;;;;;;;;13.09;84.55;99455.81;10103004;29;20242;-75
2022/09/29 11:11:30;;;;;;;;;;;;;;;13.26;83.91;99467.34;10103006;29;19988;-70
2022/09/29 11:16:35;;;;;;;;;;;;;;;13.16;83.62;99465.13;10103046;29;20011;-73
2022/09/29 11:21:57;;;;;;;;;;;;;;;13.27;84.39;99479.47;10102547;29;19934;-74
2022/09/29 11:27:06;;;;;;;;;;;;;;;13.39;83.34;99479.03;10102369;29;20417;-73
2022/09/29 11:32:20;;;;;;;;;;;;;;;13.67;82.35;99471.06;10102302;29;20027;-73
2022/09/29 11:37:31;;;;;;;;;;;;;;;13.62;82.02;99475.59;10102335;29;19934;-71
2022/09/29 11:42:55;;;;;;;;;;;;;;;13.73;81.20;99471.72;10101680;29;19927;-73
2022/09/29 11:48:18;;;;;;;;;;;;;;;13.66;81.61;99470.25;10101500;29;20015;-72
2022/09/29 11:53:41;;;;;;;;;;;;;;;13.56;82.72;99473.22;10101369;29;20010;-72
2022/09/29 11:58:53;;;;;;;;;;;;;;;13.58;81.85;99474.84;10101448;29;20011;-73
2022/09/29 12:04:07;;;;;;;;;;;;;;;13.66;81.42;99471.97;10101474;29;19939;-71
2022/09/29 12:09:24;;;;;;;;;;;;;;;13.77;81.05;99472.44;10100973;29;19938;-73
2022/09/29 12:14:32;;;;;;;;;;;;;;;14.07;79.52;99473.03;10100752;29;19955;-72
2022/09/29 12:19:45;;;;;;;;;;;;;;;14.25;79.14;99481.03;10100046;29;20265;-71
2022/09/29 12:24:50;;;;;;;;;;;;;;;14.16;78.94;99483.13;10100680;29;19927;-73
2022/09/29 12:29:56;;;;;;;;;;;;;;;14.29;79.50;99494.84;10100746;29;19928;-72
2022/09/29 12:35:04;;;;;;;;;;;;;;;14.19;79.06;99499.50;10100600;29;19959;-72
2022/09/29 12:40:12;;;;;;;;;;;;;;;14.10;79.22;99501.63;10100232;29;20444;-75
2022/09/29 12:45:19;;;;;;;;;;;;;;;14.08;78.82;99509.50;10100173;29;19928;-71
2022/09/29 12:50:25;;;;;;;;;;;;;;;13.81;78.27;99510.53;10100360;29;20465;-72
2022/09/29 12:55:31;;;;;;;;;;;;;;;13.78;79.50;99508.91;10099966;29;19959;-73
2022/09/29 13:00:35;;;;;;;;;;;;;;;13.71;80.58;99512.66;10099718;29;20018;-74
2022/09/29 13:05:50;;;;;;;;;;;;;;;13.66;80.74;99518.91;10099771;29;19927;-74
2022/09/29 13:11:05;;;;;;;;;;;;;;;13.63;80.74;99525.09;10099870;29;19928;-74
2022/09/29 13:16:13;;;;;;;;;;;;;;;13.57;80.43;99520.09;10099614;29;20018;-73
2022/09/29 13:21:24;;;;;;;;;;;;;;;13.62;80.84;99518.19;10099192;29;19971;-72
2022/09/29 13:26:36;;;;;;;;;;;;;;;13.58;82.23;99527.00;10099243;29;20019;-71
2022/09/29 13:31:40;;;;;;;;;;;;;;;13.54;81.58;99527.19;10105810;29;19931;-72
2022/09/29 13:36:46;;;;;;;;;;;;;;;13.53;82.34;99521.09;10106861;29;19939;-72
2022/09/29 13:41:54;;;;;;;;;;;;;;;13.41;81.18;99529.34;10107175;29;19942;-70
2022/09/29 13:47:17;;;;;;;;;;;;;;;13.38;80.81;99531.22;10106015;29;19938;-74
2022/09/29 13:52:30;;;;;;;;;;;;;;;13.30;81.33;99528.03;10105675;29;19938;-66
2022/09/29 13:57:33;;;;;;;;;;;;;;;13.38;82.43;99545.13;10105910;29;20290;-67
2022/09/29 14:02:38;;;;;;;;;;;;;;;13.77;80.60;99555.91;10105609;29;20014;-66
2022/09/29 14:07:43;;;;;;;;;;;;;;;13.83;81.24;99564.34;10105243;29;20045;-66
2022/09/29 14:12:48;;;;;;;;;;;;;;;13.82;81.14;99572.25;10104976;29;20413;-74
2022/09/29 14:17:57;;;;;;;;;;;;;;;13.78;81.28;99565.44;10105180;29;19968;-73
2022/09/29 14:23:03;;;;;;;;;;;;;;;13.78;81.23;99565.44;10104536;29;19932;-75
2022/09/29 14:28:09;;;;;;;;;;;;;;;13.79;82.58;99561.91;10104915;29;20318;-74
2022/09/29 14:33:15;;;;;;;;;;;;;;;13.64;80.83;99560.69;10104439;29;19938;-73
2022/09/29 14:38:22;;;;;;;;;;;;;;;13.56;80.37;99556.66;10104335;29;19970;-77
2022/09/29 14:43:33;;;;;;;;;;;;;;;13.43;81.95;99563.19;10103435;29;20231;-75
2022/09/29 14:54:07;;;;;;;;;;;;;;;13.36;81.93;99578.19;10095755;29;20010;-72
2022/09/29 14:59:13;;;;;;;;;;;;;;;13.34;81.33;99585.22;10103276;29;19932;-75
2022/09/29 15:04:22;;;;;;;;;;;;;;;13.32;80.49;99592.22;10103435;29;20011;-74
2022/09/29 15:09:27;;;;;;;;;;;;;;;13.27;81.59;99586.31;10103162;29;19934;-73
2022/09/29 15:14:30;;;;;;;;;;;;;;;13.15;81.53;99591.09;10103083;29;19991;-75
2022/09/29 15:19:46;;;;;;;;;;;;;;;13.08;83.36;99593.03;10102714;29;19998;-75
2022/09/29 15:25:02;;;;;;;;;;;;;;;13.09;83.16;99592.16;9762875;29;10000603;-75
2022/09/29 15:30:14;;;;;;;;;;;;;;;13.01;84.15;99601.06;10099404;29;19927;-76
2022/09/29 15:35:20;;;;;;;;;;;;;;;12.95;86.00;99619.50;10098989;29;19928;-75
2022/09/29 15:40:26;;;;;;;;;;;;;;;12.92;86.84;99615.25;10099355;29;20310;-77
2022/09/29 15:45:29;;;;;;;;;;;;;;;12.87;87.95;99629.31;10099214;29;19963;-74
2022/09/29 15:50:34;;;;;;;;;;;;;;;12.82;89.19;99626.84;10098425;29;19967;-75
2022/09/29 15:55:38;;;;;;;;;;;;;;;12.74;89.59;99634.03;10098047;29;19938;-74
2022/09/29 16:00:43;;;;;;;;;;;;;;;12.66;90.15;99646.44;10097877;29;20011;-76
2022/09/29 16:05:54;;;;;;;;;;;;;;;12.58;90.70;99641.44;10098003;29;19928;-78
2022/09/29 16:11:00;;;;;;;;;;;;;;;12.48;92.07;99650.44;10098475;29;19938;-77
2022/09/29 16:16:04;;;;;;;;;;;;;;;12.36;92.74;99656.00;10100807;29;20333;-76
2022/09/29 16:21:09;;;;;;;;;;;;;;;12.30;94.16;99657.91;10100915;29;19956;-77
2022/09/29 16:26:17;;;;;;;;;;;;;;;12.24;94.11;99677.16;10100135;29;20030;-75
2022/09/29 16:31:22;;;;;;;;;;;;;;;12.15;93.96;99684.38;10100731;29;20324;-78
2022/09/29 16:36:27;;;;;;;;;;;;;;;12.04;95.03;99683.78;9760882;29;10000220;-78
2022/09/29 16:41:36;;;;;;;;;;;;;;;12.01;95.63;99682.09;10058753;29;20023;-76
2022/09/29 16:46:45;;;;;;;;;;;;;;;11.90;96.16;99694.56;10058572;29;20365;-77
2022/09/29 16:51:49;;;;;;;;;;;;;;;11.85;96.35;99700.78;10058534;29;19953;-64
2022/09/29 16:57:07;;;;;;;;;;;;;;;11.77;96.39;99693.16;10058722;29;19939;-72
2022/09/29 17:02:12;;;;;;;;;;;;;;;11.73;96.19;99701.09;10058191;29;20370;-73
2022/09/29 17:07:16;;;;;;;;;;;;;;;11.66;96.53;99710.78;10066043;29;20023;-72
2022/09/29 17:12:18;;;;;;;;;;;;;;;11.55;96.51;99707.56;10065902;29;19937;-76
2022/09/29 17:17:24;;;;;;;;;;;;;;;11.55;97.03;99717.94;10065923;29;19942;-71
2022/09/29 17:22:29;;;;;;;;;;;;;;;11.50;97.34;99715.47;10065507;29;19940;-70
2022/09/29 17:32:54;;;;;;;;;;;;;;;11.32;98.29;99728.06;10064783;29;19939;-76
2022/09/29 17:37:57;;;;;;;;;;;;;;;11.30;98.89;99715.06;10078611;29;19935;-78
2022/09/29 17:43:00;;;;;;;;;;;;;;;11.33;99.46;99712.44;10103986;29;20026;-72
2022/09/29 17:48:05;;;;;;;;;;;;;;;11.33;99.77;99716.75;10141744;29;20288;-74
2022/09/29 17:53:10;;;;;;;;;;;;;;;11.32;99.82;99726.28;10141714;29;19928;-77
2022/09/29 17:58:14;;;;;;;;;;;;;;;11.25;100.00;99732.50;10141592;29;20018;-75
2022/09/29 18:03:20;;;;;;;;;;;;;;;11.24;100.00;99748.13;10141072;29;19932;-75
2022/09/29 18:08:24;;;;;;;;;;;;;;;11.21;100.00;99751.66;10141627;29;20027;-75
2022/09/29 18:13:27;;;;;;;;;;;;;;;11.14;100.00;99747.50;10140142;29;19927;-75
2022/09/29 18:18:34;;;;;;;;;;;;;;;11.08;100.00;99750.22;10139794;29;20025;-77
2022/09/29 18:23:37;;;;;;;;;;;;;;;11.07;100.00;99745.94;10140917;29;20314;-77
2022/09/29 18:28:40;;;;;;;;;;;;;;;11.04;100.00;99760.72;10140337;29;19974;-78
2022/09/29 18:33:44;;;;;;;;;;;;;;;10.99;100.00;99759.97;10140105;29;19928;-75
2022/09/29 18:38:48;;;;;;;;;;;;;;;10.94;100.00;99764.41;10119439;29;19939;-74
2022/09/29 18:43:51;;;;;;;;;;;;;;;10.91;100.00;99777.44;10101180;29;20022;-75
2022/09/29 18:49:02;;;;;;;;;;;;;;;10.87;100.00;99773.19;10100851;29;20401;-75
2022/09/29 18:54:06;;;;;;;;;;;;;;;10.84;100.00;99779.31;10101161;29;19928;-73
2022/09/29 18:59:10;;;;;;;;;;;;;;;10.73;100.00;99780.41;10100413;29;19939;-77
2022/09/29 19:04:15;;;;;;;;;;;;;;;10.64;100.00;99790.97;10100764;29;19928;-74
2022/09/29 19:09:18;;;;;;;;;;;;;;;10.66;100.00;99816.00;10099996;29;19979;-75
2022/09/29 19:14:22;;;;;;;;;;;;;;;10.71;100.00;99810.72;10099727;29;20345;-74
2022/09/29 19:19:26;;;;;;;;;;;;;;;10.71;100.00;99810.72;10099789;29;19934;-73
2022/09/29 19:24:29;;;;;;;;;;;;;;;10.76;100.00;99817.53;10100039;29;19947;-76
2022/09/29 19:29:32;;;;;;;;;;;;;;;10.68;100.00;99822.03;10098887;29;20047;-73
2022/09/29 19:34:37;;;;;;;;;;;;;;;10.62;100.00;99819.53;10099165;29;20018;-75
2022/09/29 19:39:40;;;;;;;;;;;;;;;10.58;100.00;99810.09;10098899;29;19939;-71
2022/09/29 19:44:49;;;;;;;;;;;;;;;10.55;100.00;99817.06;10098752;29;19959;-73
2022/09/29 19:51:48;;;;;;;;;;;;;;;10.59;100.00;99821.34;10098788;29;19987;-73
2022/09/29 19:55:17;;;;;;;;;;;;;;;10.59;100.00;99824.81;10099086;29;20056;-73
2022/09/29 20:00:20;;;;;;;;;;;;;;;10.56;100.00;99831.78;10098112;29;20350;-73
2022/09/29 20:05:25;;;;;;;;;;;;;;;10.53;100.00;99832.69;10099003;29;20018;-74
2022/09/29 20:10:28;;;;;;;;;;;;;;;10.48;100.00;99832.78;10097897;29;20026;-73
2022/09/29 20:15:32;;;;;;;;;;;;;;;10.48;100.00;99848.34;10097749;29;20014;-75
2022/09/29 20:20:41;;;;;;;;;;;;;;;10.39;100.00;99845.91;10097812;29;19928;-74
2022/09/29 20:25:44;;;;;;;;;;;;;;;10.35;100.00;99830.44;10097916;29;20330;-73
2022/09/29 20:30:47;;;;;;;;;;;;;;;10.29;100.00;99821.03;10097217;29;20007;-73
2022/09/29 20:35:51;;;;;;;;;;;;;;;10.33;100.00;99842.56;10097153;29;20034;-73
2022/09/29 20:40:59;;;;;;;;;;;;;;;10.29;100.00;99853.88;10096373;29;20012;-73
2022/09/29 20:46:02;;;;;;;;;;;;;;;10.33;100.00;99858.13;10097557;29;20014;-73
2022/09/29 20:51:13;;;;;;;;;;;;;;;10.22;100.00;99850.53;10097094;29;19934;-72
2022/09/29 20:56:17;;;;;;;;;;;;;;;10.18;100.00;99855.81;10097281;29;19971;-72
2022/09/29 21:01:21;;;;;;;;;;;;;;;10.16;100.00;99866.19;10096724;29;19932;-73
2022/09/29 21:06:26;;;;;;;;;;;;;;;10.16;100.00;99865.34;10096671;29;19986;-73
2022/09/29 21:11:36;;;;;;;;;;;;;;;10.12;100.00;99863.66;10096612;29;19928;-71
2022/09/29 21:16:40;;;;;;;;;;;;;;;10.07;100.00;99860.25;10096638;29;19927;-74
2022/09/29 21:21:45;;;;;;;;;;;;;;;10.02;100.00;99862.06;10096923;29;19932;-74
2022/09/29 21:26:48;;;;;;;;;;;;;;;9.98;100.00;99863.88;10096638;29;20011;-73
2022/09/29 21:31:51;;;;;;;;;;;;;;;9.88;100.00;99879.56;10096251;29;20023;-72
2022/09/29 21:36:56;;;;;;;;;;;;;;;9.90;100.00;99893.38;10096192;29;19932;-72
2022/09/29 21:41:59;;;;;;;;;;;;;;;9.89;100.00;99902.00;10096241;29;19955;-75
2022/09/29 21:47:02;;;;;;;;;;;;;;;9.89;100.00;99905.47;10095834;29;20010;-72
2022/09/29 21:52:06;;;;;;;;;;;;;;;9.76;100.00;99910.84;10101849;29;19928;-65
2022/09/29 21:57:09;;;;;;;;;;;;;;;9.44;100.00;99923.38;10102918;29;19932;-63
2022/09/29 22:02:12;;;;;;;;;;;;;;;9.45;100.00;99928.53;10102292;29;20310;-65
2022/09/29 22:07:18;;;;;;;;;;;;;;;9.61;100.00;99936.97;10102495;29;19931;-74
2022/09/29 22:12:22;;;;;;;;;;;;;;;9.70;100.00;99936.88;10102649;29;19974;-74
2022/09/29 22:17:25;;;;;;;;;;;;;;;9.68;100.00;99938.63;10102166;29;20542;-74
2022/09/29 22:22:30;;;;;;;;;;;;;;;9.61;100.00;99939.56;10102457;29;20011;-76
2022/09/29 22:27:33;;;;;;;;;;;;;;;9.46;100.00;99961.31;10101785;29;20023;-70
2022/09/29 22:32:36;;;;;;;;;;;;;;;9.37;100.00;99960.59;10101494;29;20011;-71
2022/09/29 22:37:40;;;;;;;;;;;;;;;9.32;100.00;99969.25;10101170;29;19938;-71
2022/09/29 22:42:43;;;;;;;;;;;;;;;9.39;100.00;99977.81;10101142;29;19938;-70
2022/09/29 22:47:46;;;;;;;;;;;;;;;9.33;100.00;99972.72;10100966;29;19995;-67
2022/09/29 22:52:51;;;;;;;;;;;;;;;9.32;100.00;99979.63;10101150;29;20015;-70
2022/09/29 22:57:55;;;;;;;;;;;;;;;9.35;100.00;99977.00;10100432;29;20011;-69
2022/09/29 23:02:58;;;;;;;;;;;;;;;9.42;100.00;99984.72;10099880;29;19942;-73
2022/09/29 23:08:02;;;;;;;;;;;;;;;9.41;100.00;99983.84;10100224;29;20030;-74
2022/09/29 23:13:05;;;;;;;;;;;;;;;9.34;100.00;99979.59;10100068;29;19985;-75
2022/09/29 23:18:08;;;;;;;;;;;;;;;9.27;100.00;99996.94;10099807;29;20380;-74
2022/09/29 23:23:13;;;;;;;;;;;;;;;9.22;100.00;99990.97;10100183;29;20239;-73
2022/09/29 23:28:16;;;;;;;;;;;;;;;9.30;100.00;99985.72;10099616;29;20038;-76
2022/09/29 23:33:20;;;;;;;;;;;;;;;9.17;100.00;99987.56;10099297;29;20519;-72
2022/09/29 23:43:44;;;;;;;;;;;;;;;9.17;100.00;99982.38;10099018;29;20015;-74
2022/09/29 23:48:47;;;;;;;;;;;;;;;8.97;100.00;99979.13;10099326;29;19931;-73
2022/09/29 23:53:51;;;;;;;;;;;;;;;8.95;100.00;99991.25;10098673;29;20294;-75
2022/09/29 23:58:55;;;;;;;;;;;;;;;8.95;100.00;100006.78;10098217;29;20433;-75
